createdAt,value
2018-04-22T00:00:05.938Z,18.11
2018-04-22T00:01:06.068Z,17.99
2018-04-22T00:02:06.208Z,18.11
2018-04-22T00:03:06.367Z,18.06
2018-04-22T00:04:06.499Z,17.97
2018-04-22T00:05:06.639Z,17.79
2018-04-22T00:06:06.792Z,17.86
2018-04-22T00:07:06.935Z,17.91
2018-04-22T00:08:07.072Z,17.73
2018-04-22T00:09:07.236Z,17.68
2018-04-22T00:10:07.371Z,17.56
2018-04-22T00:11:07.524Z,17.41
2018-04-22T00:12:07.659Z,17.57
2018-04-22T00:13:07.801Z,17.65
2018-04-22T00:14:07.957Z,17.65
2018-04-22T00:15:08.092Z,17.69
2018-04-22T00:16:08.232Z,17.66
2018-04-22T00:17:08.372Z,17.69
2018-04-22T00:18:08.578Z,17.56
2018-04-22T00:19:08.676Z,17.62
2018-04-22T00:20:08.814Z,17.53
2018-04-22T00:21:08.951Z,17.59
2018-04-22T00:22:09.095Z,17.57
2018-04-22T00:23:09.230Z,17.59
2018-04-22T00:24:09.379Z,17.62
2018-04-22T00:25:09.512Z,17.56
2018-04-22T00:26:09.648Z,17.53
2018-04-22T00:27:09.800Z,17.59
2018-04-22T00:28:09.952Z,17.57
2018-04-22T00:29:10.074Z,17.75
2018-04-22T00:30:10.217Z,17.68
2018-04-22T00:31:10.398Z,17.78
2018-04-22T00:32:10.557Z,17.72
2018-04-22T00:33:10.684Z,17.72
2018-04-22T00:34:10.824Z,17.73
2018-04-22T00:35:10.966Z,17.72
2018-04-22T00:36:11.108Z,17.56
2018-04-22T00:37:11.243Z,17.68
2018-04-22T00:38:11.381Z,17.52
2018-04-22T00:39:11.513Z,17.53
2018-04-22T00:40:11.646Z,17.47
2018-04-22T00:41:11.781Z,17.45
2018-04-22T00:42:12.024Z,17.37
2018-04-22T00:43:12.083Z,17.30
2018-04-22T00:44:12.219Z,17.24
2018-04-22T00:45:12.361Z,17.13
2018-04-22T00:46:12.526Z,17.20
2018-04-22T00:47:12.658Z,17.27
2018-04-22T00:48:12.800Z,17.31
2018-04-22T00:49:12.976Z,17.24
2018-04-22T00:50:13.108Z,17.31
2018-04-22T00:51:13.247Z,17.27
2018-04-22T00:52:14.335Z,17.25
2018-04-22T00:53:13.532Z,17.28
2018-04-22T00:54:13.666Z,17.20
2018-04-22T00:55:13.800Z,17.07
2018-04-22T00:56:13.937Z,17.16
2018-04-22T00:57:14.079Z,17.04
2018-04-22T00:58:14.225Z,17.07
2018-04-22T00:59:14.368Z,17.14
2018-04-22T01:00:14.496Z,17.13
2018-04-22T01:01:14.645Z,16.97
2018-04-22T01:02:14.776Z,16.90
2018-04-22T01:03:14.911Z,16.92
2018-04-22T01:04:15.049Z,16.83
2018-04-22T01:05:15.186Z,16.82
2018-04-22T01:06:15.334Z,16.84
2018-04-22T01:07:15.471Z,16.80
2018-04-22T01:08:15.609Z,16.65
2018-04-22T01:09:15.744Z,16.59
2018-04-22T01:10:15.885Z,16.61
2018-04-22T01:11:16.016Z,16.70
2018-04-22T01:12:16.155Z,16.74
2018-04-22T01:13:16.292Z,16.79
2018-04-22T01:14:16.463Z,16.90
2018-04-22T01:15:16.595Z,16.91
2018-04-22T01:16:16.735Z,16.99
2018-04-22T01:17:16.875Z,16.95
2018-04-22T01:18:17.026Z,17.04
2018-04-22T01:19:17.155Z,17.01
2018-04-22T01:20:17.300Z,17.06
2018-04-22T01:21:17.518Z,17.04
2018-04-22T01:22:17.539Z,17.10
2018-04-22T01:23:17.680Z,17.07
2018-04-22T01:24:17.833Z,17.06
2018-04-22T01:25:17.968Z,17.12
2018-04-22T01:26:18.095Z,17.10
2018-04-22T01:27:18.235Z,17.13
2018-04-22T01:28:18.375Z,17.14
2018-04-22T01:29:18.511Z,17.14
2018-04-22T01:30:18.724Z,17.17
2018-04-22T01:31:18.736Z,17.14
2018-04-22T01:32:18.881Z,17.14
2018-04-22T01:33:19.030Z,17.14
2018-04-22T01:34:19.164Z,17.16
2018-04-22T01:35:19.303Z,17.22
2018-04-22T01:36:19.441Z,17.20
2018-04-22T01:37:19.581Z,17.14
2018-04-22T01:38:19.725Z,17.13
2018-04-22T01:39:19.866Z,17.13
2018-04-22T01:40:20.014Z,17.09
2018-04-22T01:41:20.153Z,17.01
2018-04-22T01:42:20.288Z,17.02
2018-04-22T01:43:20.430Z,16.84
2018-04-22T01:44:20.565Z,16.82
2018-04-22T01:45:20.711Z,16.77
2018-04-22T01:46:20.843Z,16.67
2018-04-22T01:47:20.981Z,16.82
2018-04-22T01:48:21.123Z,16.67
2018-04-22T01:49:21.258Z,16.72
2018-04-22T01:50:21.399Z,16.67
2018-04-22T01:51:21.537Z,16.64
2018-04-22T01:52:21.678Z,16.52
2018-04-22T01:53:21.809Z,16.42
2018-04-22T01:54:21.952Z,16.37
2018-04-22T01:55:22.091Z,16.46
2018-04-22T01:56:22.226Z,16.40
2018-04-22T01:57:22.365Z,16.40
2018-04-22T01:58:22.506Z,16.44
2018-04-22T01:59:22.643Z,16.49
2018-04-22T02:00:22.776Z,16.54
2018-04-22T02:01:22.919Z,16.54
2018-04-22T02:02:23.099Z,16.58
2018-04-22T02:03:23.228Z,16.62
2018-04-22T02:04:23.368Z,16.62
2018-04-22T02:05:23.503Z,16.55
2018-04-22T02:06:23.669Z,16.54
2018-04-22T02:07:23.798Z,16.55
2018-04-22T02:08:23.937Z,16.44
2018-04-22T02:09:24.071Z,16.40
2018-04-22T02:10:24.227Z,16.29
2018-04-22T02:11:24.364Z,16.33
2018-04-22T02:12:24.507Z,16.42
2018-04-22T02:13:24.691Z,16.37
2018-04-22T02:14:24.831Z,16.49
2018-04-22T02:15:24.989Z,16.42
2018-04-22T02:16:25.130Z,16.52
2018-04-22T02:17:25.307Z,16.52
2018-04-22T02:18:25.443Z,16.51
2018-04-22T02:19:25.590Z,16.59
2018-04-22T02:20:25.744Z,16.61
2018-04-22T02:21:25.874Z,16.61
2018-04-22T02:22:26.018Z,16.62
2018-04-22T02:23:26.164Z,16.47
2018-04-22T02:24:26.288Z,16.52
2018-04-22T02:25:26.428Z,16.52
2018-04-22T02:26:26.571Z,16.47
2018-04-22T02:27:26.723Z,16.55
2018-04-22T02:28:26.852Z,16.55
2018-04-22T02:29:27.073Z,16.54
2018-04-22T02:30:27.093Z,16.57
2018-04-22T02:31:27.244Z,16.52
2018-04-22T02:32:27.374Z,16.52
2018-04-22T02:33:27.509Z,16.49
2018-04-22T02:34:27.647Z,16.42
2018-04-22T02:35:27.806Z,16.40
2018-04-22T02:36:27.940Z,16.42
2018-04-22T02:37:28.077Z,16.39
2018-04-22T02:38:28.219Z,16.39
2018-04-22T02:39:28.368Z,16.39
2018-04-22T02:40:28.504Z,16.37
2018-04-22T02:41:28.649Z,16.39
2018-04-22T02:42:28.782Z,16.37
2018-04-22T02:43:28.946Z,16.28
2018-04-22T02:44:29.058Z,16.37
2018-04-22T02:45:29.195Z,16.34
2018-04-22T02:46:29.338Z,16.34
2018-04-22T02:47:29.473Z,16.40
2018-04-22T02:48:29.610Z,16.40
2018-04-22T02:49:29.753Z,16.42
2018-04-22T02:50:29.884Z,16.47
2018-04-22T02:51:30.029Z,16.39
2018-04-22T02:52:30.167Z,16.36
2018-04-22T02:53:30.311Z,16.33
2018-04-22T02:54:30.443Z,16.39
2018-04-22T02:55:30.586Z,16.34
2018-04-22T02:56:30.723Z,16.26
2018-04-22T02:57:30.862Z,16.02
2018-04-22T02:58:31.007Z,16.10
2018-04-22T02:59:31.144Z,16.03
2018-04-22T03:00:31.284Z,16.05
2018-04-22T03:01:31.431Z,15.95
2018-04-22T03:02:31.572Z,16.02
2018-04-22T03:03:31.709Z,16.00
2018-04-22T03:04:31.847Z,15.98
2018-04-22T03:05:31.990Z,15.77
2018-04-22T03:06:32.126Z,15.68
2018-04-22T03:07:32.266Z,15.70
2018-04-22T03:08:32.396Z,15.65
2018-04-22T03:09:32.550Z,15.52
2018-04-22T03:10:32.766Z,15.60
2018-04-22T03:11:32.774Z,15.59
2018-04-22T03:12:32.908Z,15.60
2018-04-22T03:13:33.059Z,15.58
2018-04-22T03:14:33.193Z,15.65
2018-04-22T03:15:33.334Z,15.78
2018-04-22T03:16:33.497Z,15.83
2018-04-22T03:17:33.634Z,15.83
2018-04-22T03:18:33.770Z,15.88
2018-04-22T03:19:33.909Z,16.03
2018-04-22T03:20:34.074Z,15.91
2018-04-22T03:21:34.205Z,16.02
2018-04-22T03:22:34.347Z,16.00
2018-04-22T03:23:34.481Z,16.00
2018-04-22T03:24:34.633Z,16.00
2018-04-22T03:25:34.771Z,16.09
2018-04-22T03:26:34.910Z,16.08
2018-04-22T03:27:35.049Z,16.02
2018-04-22T03:28:35.204Z,16.06
2018-04-22T03:29:35.335Z,16.13
2018-04-22T03:30:35.679Z,16.25
2018-04-22T03:31:35.552Z,16.02
2018-04-22T03:32:35.708Z,16.09
2018-04-22T03:33:35.834Z,16.16
2018-04-22T03:34:36.226Z,16.05
2018-04-22T03:35:36.143Z,16.10
2018-04-22T03:36:36.317Z,16.09
2018-04-22T03:37:36.411Z,16.03
2018-04-22T03:38:36.548Z,16.05
2018-04-22T03:39:36.731Z,16.05
2018-04-22T03:40:36.876Z,16.08
2018-04-22T03:41:37.000Z,16.00
2018-04-22T03:42:37.194Z,16.00
2018-04-22T03:43:37.286Z,15.96
2018-04-22T03:44:37.420Z,15.84
2018-04-22T03:45:37.559Z,15.78
2018-04-22T03:46:37.706Z,15.73
2018-04-22T03:47:37.840Z,15.68
2018-04-22T03:48:37.980Z,15.65
2018-04-22T03:49:38.117Z,15.78
2018-04-22T03:50:38.265Z,15.73
2018-04-22T03:51:38.393Z,15.73
2018-04-22T03:52:38.531Z,15.78
2018-04-22T03:53:38.665Z,15.77
2018-04-22T03:54:38.806Z,15.78
2018-04-22T03:55:38.951Z,15.68
2018-04-22T03:56:39.090Z,15.63
2018-04-22T03:57:39.228Z,15.68
2018-04-22T03:58:39.369Z,15.52
2018-04-22T03:59:39.508Z,15.32
2018-04-22T04:00:39.645Z,15.23
2018-04-22T04:01:39.779Z,15.14
2018-04-22T04:02:39.919Z,15.01
2018-04-22T04:03:40.061Z,14.90
2018-04-22T04:04:40.197Z,14.85
2018-04-22T04:05:40.342Z,14.79
2018-04-22T04:06:40.477Z,14.93
2018-04-22T04:07:40.613Z,14.86
2018-04-22T04:08:40.746Z,14.96
2018-04-22T04:09:40.890Z,15.03
2018-04-22T04:10:41.024Z,14.97
2018-04-22T04:11:41.167Z,15.01
2018-04-22T04:12:41.300Z,15.11
2018-04-22T04:13:41.442Z,15.11
2018-04-22T04:14:41.575Z,15.12
2018-04-22T04:15:41.716Z,15.17
2018-04-22T04:16:41.852Z,15.14
2018-04-22T04:17:42.000Z,15.26
2018-04-22T04:18:42.131Z,15.26
2018-04-22T04:19:42.270Z,15.19
2018-04-22T04:20:42.405Z,15.29
2018-04-22T04:21:42.572Z,15.40
2018-04-22T04:22:42.705Z,15.29
2018-04-22T04:23:42.852Z,15.36
2018-04-22T04:24:42.992Z,15.32
2018-04-22T04:25:43.173Z,15.35
2018-04-22T04:26:43.300Z,15.38
2018-04-22T04:27:43.429Z,15.41
2018-04-22T04:28:43.567Z,15.38
2018-04-22T04:29:43.722Z,15.20
2018-04-22T04:30:43.857Z,15.08
2018-04-22T04:31:43.995Z,15.22
2018-04-22T04:32:44.133Z,15.20
2018-04-22T04:33:44.286Z,15.03
2018-04-22T04:34:44.417Z,14.99
2018-04-22T04:35:44.577Z,15.04
2018-04-22T04:36:44.714Z,15.03
2018-04-22T04:37:44.873Z,15.12
2018-04-22T04:38:45.081Z,15.17
2018-04-22T04:39:45.090Z,15.23
2018-04-22T04:40:45.238Z,15.26
2018-04-22T04:41:45.376Z,15.33
2018-04-22T04:42:45.508Z,15.32
2018-04-22T04:43:45.645Z,15.41
2018-04-22T04:44:45.789Z,15.44
2018-04-22T04:45:45.921Z,15.43
2018-04-22T04:46:46.067Z,15.43
2018-04-22T04:47:46.195Z,15.48
2018-04-22T04:48:46.375Z,15.56
2018-04-22T04:49:46.505Z,15.50
2018-04-22T04:50:46.641Z,15.56
2018-04-22T04:51:46.817Z,15.60
2018-04-22T04:52:46.949Z,15.54
2018-04-22T04:53:47.081Z,15.63
2018-04-22T04:54:47.221Z,15.44
2018-04-22T04:55:47.379Z,15.36
2018-04-22T04:56:47.523Z,15.15
2018-04-22T04:57:47.667Z,15.10
2018-04-22T04:58:47.804Z,15.07
2018-04-22T04:59:47.941Z,15.07
2018-04-22T05:00:48.083Z,14.96
2018-04-22T05:01:48.224Z,15.08
2018-04-22T05:02:48.363Z,15.05
2018-04-22T05:03:48.499Z,15.11
2018-04-22T05:04:48.641Z,15.14
2018-04-22T05:05:48.775Z,15.23
2018-04-22T05:06:48.913Z,15.29
2018-04-22T05:07:49.052Z,15.35
2018-04-22T05:08:49.193Z,15.41
2018-04-22T05:09:49.333Z,15.44
2018-04-22T05:10:49.470Z,15.30
2018-04-22T05:11:49.609Z,15.43
2018-04-22T05:12:49.742Z,15.47
2018-04-22T05:13:49.894Z,15.47
2018-04-22T05:14:50.026Z,15.47
2018-04-22T05:15:50.201Z,15.47
2018-04-22T05:16:50.316Z,15.52
2018-04-22T05:17:50.462Z,15.51
2018-04-22T05:18:50.593Z,15.58
2018-04-22T05:19:50.814Z,15.62
2018-04-22T05:20:50.830Z,15.56
2018-04-22T05:21:50.964Z,15.50
2018-04-22T05:22:51.107Z,15.60
2018-04-22T05:23:51.241Z,15.62
2018-04-22T05:24:51.386Z,15.59
2018-04-22T05:25:51.521Z,15.73
2018-04-22T05:26:51.662Z,15.69
2018-04-22T05:27:51.799Z,15.77
2018-04-22T05:28:51.953Z,15.81
2018-04-22T05:29:52.088Z,15.76
2018-04-22T05:30:52.231Z,15.70
2018-04-22T05:31:52.367Z,15.78
2018-04-22T05:32:52.503Z,15.84
2018-04-22T05:33:52.630Z,15.90
2018-04-22T05:34:52.769Z,15.91
2018-04-22T05:35:52.916Z,16.03
2018-04-22T05:36:53.057Z,16.02
2018-04-22T05:37:53.192Z,15.96
2018-04-22T05:38:53.352Z,16.14
2018-04-22T05:39:53.491Z,16.17
2018-04-22T05:40:53.626Z,16.18
2018-04-22T05:41:53.783Z,16.17
2018-04-22T05:42:53.914Z,16.13
2018-04-22T05:43:54.053Z,16.24
2018-04-22T05:44:54.194Z,16.16
2018-04-22T05:45:54.361Z,16.36
2018-04-22T05:46:54.506Z,16.10
2018-04-22T05:47:54.634Z,16.21
2018-04-22T05:48:54.775Z,16.34
2018-04-22T05:49:54.979Z,16.29
2018-04-22T05:50:55.066Z,16.40
2018-04-22T05:51:55.203Z,16.36
2018-04-22T05:52:55.354Z,16.40
2018-04-22T05:53:55.495Z,16.37
2018-04-22T05:54:55.635Z,16.46
2018-04-22T05:55:55.766Z,16.40
2018-04-22T05:56:55.928Z,16.46
2018-04-22T05:57:56.052Z,16.46
2018-04-22T05:58:56.193Z,16.43
2018-04-22T05:59:56.335Z,16.55
2018-04-22T06:00:56.481Z,16.54
2018-04-22T06:01:56.608Z,16.59
2018-04-22T06:02:56.745Z,16.61
2018-04-22T06:03:56.899Z,16.61
2018-04-22T06:04:57.034Z,16.59
2018-04-22T06:05:57.175Z,16.62
2018-04-22T06:06:57.329Z,16.67
2018-04-22T06:07:57.469Z,16.67
2018-04-22T06:08:57.610Z,16.67
2018-04-22T06:09:57.751Z,16.72
2018-04-22T06:10:57.885Z,16.80
2018-04-22T06:11:58.013Z,16.70
2018-04-22T06:12:58.153Z,16.37
2018-04-22T06:13:58.292Z,16.24
2018-04-22T06:14:58.438Z,16.17
2018-04-22T06:15:58.575Z,16.28
2018-04-22T06:16:58.706Z,16.32
2018-04-22T06:17:58.859Z,16.22
2018-04-22T06:18:58.993Z,16.18
2018-04-22T06:19:59.142Z,16.08
2018-04-22T06:20:59.291Z,16.17
2018-04-22T06:21:59.426Z,16.25
2018-04-22T06:22:59.573Z,16.22
2018-04-22T06:23:59.710Z,16.17
2018-04-22T06:24:59.849Z,16.18
2018-04-22T06:25:59.983Z,16.40
2018-04-22T06:27:00.121Z,16.42
2018-04-22T06:28:00.313Z,16.40
2018-04-22T06:29:00.441Z,16.28
2018-04-22T06:30:00.582Z,16.32
2018-04-22T06:31:00.716Z,16.32
2018-04-22T06:32:00.851Z,16.29
2018-04-22T06:33:01.037Z,16.40
2018-04-22T06:34:01.145Z,16.43
2018-04-22T06:35:01.277Z,16.49
2018-04-22T06:36:01.445Z,16.57
2018-04-22T06:37:01.579Z,16.61
2018-04-22T06:38:01.712Z,16.62
2018-04-22T06:39:01.847Z,16.57
2018-04-22T06:40:02.002Z,16.72
2018-04-22T06:41:02.138Z,16.72
2018-04-22T06:42:02.287Z,16.70
2018-04-22T06:43:02.419Z,16.87
2018-04-22T06:44:02.579Z,16.92
2018-04-22T06:45:02.716Z,16.98
2018-04-22T06:46:02.865Z,16.99
2018-04-22T06:47:03.013Z,17.02
2018-04-22T06:48:03.140Z,17.06
2018-04-22T06:49:03.284Z,16.91
2018-04-22T06:50:03.468Z,16.69
2018-04-22T06:51:03.581Z,16.55
2018-04-22T06:52:03.719Z,16.32
2018-04-22T06:53:03.866Z,16.24
2018-04-22T06:54:04.023Z,16.33
2018-04-22T06:55:04.162Z,16.29
2018-04-22T06:56:04.295Z,16.17
2018-04-22T06:57:04.454Z,16.33
2018-04-22T06:58:04.602Z,16.49
2018-04-22T06:59:04.734Z,16.65
2018-04-22T07:00:04.885Z,16.74
2018-04-22T07:01:05.048Z,16.83
2018-04-22T07:02:05.185Z,16.83
2018-04-22T07:03:05.337Z,16.88
2018-04-22T07:04:05.477Z,16.87
2018-04-22T07:05:05.641Z,16.80
2018-04-22T07:06:05.782Z,16.95
2018-04-22T07:07:05.930Z,16.88
2018-04-22T07:08:06.078Z,16.95
2018-04-22T07:09:06.215Z,17.06
2018-04-22T07:10:06.362Z,17.09
2018-04-22T07:11:06.503Z,17.14
2018-04-22T07:12:06.641Z,17.13
2018-04-22T07:13:06.779Z,17.13
2018-04-22T07:14:06.917Z,17.19
2018-04-22T07:15:07.086Z,17.25
2018-04-22T07:16:07.222Z,17.34
2018-04-22T07:17:07.358Z,17.39
2018-04-22T07:18:07.535Z,17.52
2018-04-22T07:19:07.666Z,17.54
2018-04-22T07:20:07.808Z,17.65
2018-04-22T07:21:07.947Z,17.71
2018-04-22T07:22:08.089Z,17.68
2018-04-22T07:23:08.222Z,17.84
2018-04-22T07:24:08.362Z,17.90
2018-04-22T07:25:08.507Z,17.91
2018-04-22T07:26:08.653Z,17.94
2018-04-22T07:27:08.802Z,17.99
2018-04-22T07:28:08.932Z,17.86
2018-04-22T07:29:09.079Z,17.93
2018-04-22T07:30:09.239Z,18.08
2018-04-22T07:31:09.536Z,18.02
2018-04-22T07:32:09.535Z,18.23
2018-04-22T07:33:09.619Z,18.06
2018-04-22T07:34:09.753Z,18.21
2018-04-22T07:35:09.889Z,18.06
2018-04-22T07:36:10.040Z,18.11
2018-04-22T07:37:10.175Z,18.17
2018-04-22T07:38:10.326Z,18.20
2018-04-22T07:39:10.463Z,18.31
2018-04-22T07:40:10.612Z,18.31
2018-04-22T07:41:10.773Z,18.39
2018-04-22T07:42:10.914Z,18.43
2018-04-22T07:43:11.087Z,18.49
2018-04-22T07:44:11.364Z,18.63
2018-04-22T07:45:11.429Z,18.60
2018-04-22T07:46:11.566Z,18.71
2018-04-22T07:47:12.340Z,18.74
2018-04-22T07:48:11.879Z,18.68
2018-04-22T07:49:12.024Z,18.49
2018-04-22T07:50:12.149Z,18.58
2018-04-22T07:51:12.286Z,18.58
2018-04-22T07:52:12.576Z,18.56
2018-04-22T07:53:12.611Z,18.48
2018-04-22T07:54:12.770Z,18.51
2018-04-22T07:55:12.908Z,18.67
2018-04-22T07:56:13.048Z,18.75
2018-04-22T07:57:13.213Z,18.75
2018-04-22T07:58:13.362Z,18.79
2018-04-22T07:59:13.503Z,18.78
2018-04-22T08:00:13.648Z,18.94
2018-04-22T08:01:13.786Z,19.01
2018-04-22T08:02:13.950Z,19.15
2018-04-22T08:03:14.062Z,19.22
2018-04-22T08:04:14.199Z,19.32
2018-04-22T08:05:14.338Z,19.41
2018-04-22T08:06:14.468Z,19.42
2018-04-22T08:07:14.602Z,19.44
2018-04-22T08:08:14.746Z,19.53
2018-04-22T08:09:14.891Z,19.53
2018-04-22T08:10:16.731Z,19.68
2018-04-22T08:11:15.175Z,19.72
2018-04-22T08:12:15.321Z,19.86
2018-04-22T08:13:15.458Z,19.84
2018-04-22T08:14:15.630Z,19.90
2018-04-22T08:15:15.723Z,19.86
2018-04-22T08:16:15.897Z,20.00
2018-04-22T08:17:16.014Z,19.89
2018-04-22T08:18:16.148Z,20.05
2018-04-22T08:19:16.287Z,20.12
2018-04-22T08:20:16.431Z,20.12
2018-04-22T08:21:16.578Z,20.23
2018-04-22T08:22:16.714Z,20.25
2018-04-22T08:23:16.860Z,20.44
2018-04-22T08:24:17.002Z,20.46
2018-04-22T08:25:17.138Z,20.44
2018-04-22T08:26:17.299Z,20.52
2018-04-22T08:27:17.431Z,20.58
2018-04-22T08:28:17.610Z,20.65
2018-04-22T08:29:17.765Z,20.61
2018-04-22T08:30:17.888Z,20.50
2018-04-22T08:31:18.029Z,20.44
2018-04-22T08:32:18.176Z,20.41
2018-04-22T08:33:18.357Z,20.34
2018-04-22T08:34:18.457Z,20.44
2018-04-22T08:35:18.597Z,20.34
2018-04-22T08:36:18.741Z,20.29
2018-04-22T08:37:18.877Z,20.22
2018-04-22T08:38:19.025Z,20.27
2018-04-22T08:39:19.159Z,20.27
2018-04-22T08:40:19.299Z,20.29
2018-04-22T08:41:19.456Z,20.37
2018-04-22T08:42:19.606Z,20.42
2018-04-22T08:43:19.750Z,20.52
2018-04-22T08:44:19.890Z,20.46
2018-04-22T08:45:20.023Z,20.49
2018-04-22T08:46:20.160Z,20.63
2018-04-22T08:47:20.340Z,20.65
2018-04-22T08:48:20.437Z,20.63
2018-04-22T08:49:20.575Z,20.77
2018-04-22T08:50:20.741Z,20.88
2018-04-22T08:51:20.883Z,20.82
2018-04-22T08:52:21.029Z,20.88
2018-04-22T08:53:21.203Z,20.93
2018-04-22T08:54:21.337Z,20.92
2018-04-22T08:55:21.487Z,20.92
2018-04-22T08:56:21.631Z,21.10
2018-04-22T08:57:21.778Z,21.04
2018-04-22T08:58:21.923Z,21.10
2018-04-22T08:59:22.103Z,21.13
2018-04-22T09:00:22.198Z,21.22
2018-04-22T09:01:22.340Z,21.29
2018-04-22T09:02:22.481Z,21.34
2018-04-22T09:03:22.620Z,21.35
2018-04-22T09:04:22.770Z,21.35
2018-04-22T09:05:22.918Z,21.38
2018-04-22T09:06:23.059Z,21.43
2018-04-22T09:07:23.199Z,21.56
2018-04-22T09:08:23.350Z,21.47
2018-04-22T09:09:23.479Z,21.60
2018-04-22T09:10:23.628Z,21.71
2018-04-22T09:11:23.772Z,21.71
2018-04-22T09:12:23.917Z,21.60
2018-04-22T09:13:24.075Z,21.74
2018-04-22T09:14:24.204Z,21.75
2018-04-22T09:15:24.367Z,21.81
2018-04-22T09:16:24.583Z,21.85
2018-04-22T09:17:24.665Z,21.88
2018-04-22T09:18:24.801Z,21.96
2018-04-22T09:19:24.944Z,22.00
2018-04-22T09:20:25.159Z,21.98
2018-04-22T09:21:25.192Z,22.06
2018-04-22T09:22:25.330Z,22.03
2018-04-22T09:23:25.475Z,22.12
2018-04-22T09:24:25.612Z,22.16
2018-04-22T09:25:25.759Z,22.19
2018-04-22T09:26:25.901Z,22.15
2018-04-22T09:27:26.048Z,22.31
2018-04-22T09:28:26.189Z,22.31
2018-04-22T09:29:26.335Z,22.36
2018-04-22T09:30:26.474Z,22.37
2018-04-22T09:31:26.602Z,22.41
2018-04-22T09:32:26.752Z,22.38
2018-04-22T09:33:26.894Z,22.44
2018-04-22T09:34:27.039Z,22.40
2018-04-22T09:35:27.186Z,22.49
2018-04-22T09:36:27.322Z,22.52
2018-04-22T09:37:27.466Z,22.52
2018-04-22T09:38:27.620Z,22.55
2018-04-22T09:39:27.745Z,22.67
2018-04-22T09:40:27.893Z,22.61
2018-04-22T09:41:28.038Z,22.66
2018-04-22T09:42:28.182Z,22.77
2018-04-22T09:43:28.326Z,22.80
2018-04-22T09:44:28.476Z,22.80
2018-04-22T09:45:28.620Z,22.93
2018-04-22T09:46:28.772Z,22.99
2018-04-22T09:47:28.909Z,22.96
2018-04-22T09:48:29.057Z,23.01
2018-04-22T09:49:29.202Z,23.14
2018-04-22T09:50:29.340Z,23.15
2018-04-22T09:51:29.478Z,23.14
2018-04-22T09:52:29.628Z,23.22
2018-04-22T09:53:29.787Z,23.31
2018-04-22T09:54:29.918Z,23.42
2018-04-22T09:55:30.056Z,23.46
2018-04-22T09:56:30.196Z,23.60
2018-04-22T09:57:30.334Z,23.64
2018-04-22T09:58:30.480Z,23.59
2018-04-22T09:59:30.633Z,23.69
2018-04-22T10:00:30.777Z,23.64
2018-04-22T10:01:30.933Z,23.67
2018-04-22T10:02:31.073Z,23.76
2018-04-22T10:03:31.220Z,23.70
2018-04-22T10:04:31.367Z,23.67
2018-04-22T10:05:31.514Z,23.74
2018-04-22T10:06:31.664Z,23.67
2018-04-22T10:07:31.809Z,23.74
2018-04-22T10:08:31.942Z,23.67
2018-04-22T10:09:32.085Z,23.66
2018-04-22T10:10:32.238Z,23.84
2018-04-22T10:11:32.378Z,24.06
2018-04-22T10:12:32.525Z,24.22
2018-04-22T10:13:32.673Z,24.13
2018-04-22T10:14:32.833Z,24.25
2018-04-22T10:15:32.962Z,24.36
2018-04-22T10:16:33.162Z,24.40
2018-04-22T10:17:33.266Z,24.41
2018-04-22T10:18:33.423Z,24.62
2018-04-22T10:19:33.573Z,24.74
2018-04-22T10:20:33.730Z,24.62
2018-04-22T10:21:34.696Z,24.60
2018-04-22T10:22:33.946Z,24.60
2018-04-22T10:23:34.084Z,24.70
2018-04-22T10:24:34.232Z,24.65
2018-04-22T10:25:34.390Z,24.68
2018-04-22T10:26:34.536Z,24.68
2018-04-22T10:27:34.689Z,24.63
2018-04-22T10:28:34.849Z,24.66
2018-04-22T10:29:34.984Z,24.66
2018-04-22T10:30:35.127Z,24.74
2018-04-22T10:31:35.319Z,24.71
2018-04-22T10:32:35.465Z,24.76
2018-04-22T10:33:35.624Z,24.91
2018-04-22T10:34:35.756Z,25.08
2018-04-22T10:35:35.918Z,25.08
2018-04-22T10:36:36.044Z,25.19
2018-04-22T10:37:36.178Z,25.15
2018-04-22T10:38:36.334Z,25.19
2018-04-22T10:39:36.475Z,25.19
2018-04-22T10:40:36.627Z,25.21
2018-04-22T10:41:36.868Z,25.22
2018-04-22T10:42:36.884Z,25.37
2018-04-22T10:43:37.054Z,25.30
2018-04-22T10:44:37.201Z,25.27
2018-04-22T10:45:37.367Z,25.22
2018-04-22T10:46:37.520Z,25.28
2018-04-22T10:47:37.660Z,25.33
2018-04-22T10:48:37.801Z,25.34
2018-04-22T10:49:37.955Z,25.36
2018-04-22T10:50:38.099Z,25.40
2018-04-22T10:51:38.245Z,25.48
2018-04-22T10:52:38.704Z,25.63
2018-04-22T10:53:38.486Z,25.75
2018-04-22T10:54:38.632Z,26.01
2018-04-22T10:55:38.781Z,26.15
2018-04-22T10:56:38.928Z,26.10
2018-04-22T10:57:39.072Z,26.04
2018-04-22T10:58:39.275Z,26.33
2018-04-22T10:59:39.297Z,26.31
2018-04-22T11:00:39.451Z,26.49
2018-04-22T11:01:39.587Z,26.82
2018-04-22T11:02:39.735Z,26.86
2018-04-22T11:03:39.878Z,26.88
2018-04-22T11:04:40.077Z,27.17
2018-04-22T11:05:40.186Z,27.52
2018-04-22T11:06:40.389Z,27.85
2018-04-22T11:07:40.438Z,28.22
2018-04-22T11:08:40.589Z,28.69
2018-04-22T11:09:40.737Z,29.02
2018-04-22T11:10:40.891Z,29.73
2018-04-22T11:11:41.041Z,29.86
2018-04-22T11:12:41.187Z,29.89
2018-04-22T11:13:41.341Z,29.52
2018-04-22T11:14:41.739Z,29.37
2018-04-22T11:15:41.816Z,29.44
2018-04-22T11:16:41.720Z,29.63
2018-04-22T11:17:41.891Z,29.61
2018-04-22T11:18:42.035Z,29.62
2018-04-22T11:19:42.185Z,29.47
2018-04-22T11:20:42.332Z,29.66
2018-04-22T11:21:42.479Z,29.33
2018-04-22T11:22:42.630Z,29.34
2018-04-22T11:23:42.787Z,29.50
2018-04-22T11:24:42.948Z,29.63
2018-04-22T11:25:43.087Z,29.86
2018-04-22T11:26:43.248Z,30.43
2018-04-22T11:27:43.400Z,30.35
2018-04-22T11:28:43.545Z,29.89
2018-04-22T11:29:43.700Z,29.81
2018-04-22T11:30:43.855Z,29.99
2018-04-22T11:31:43.998Z,30.78
2018-04-22T11:32:44.150Z,30.96
2018-04-22T11:33:44.294Z,31.51
2018-04-22T11:34:44.445Z,31.94
2018-04-22T11:35:44.589Z,31.91
2018-04-22T11:36:44.748Z,31.63
2018-04-22T11:37:44.956Z,31.94
2018-04-22T11:38:44.995Z,32.55
2018-04-22T11:39:45.146Z,32.73
2018-04-22T11:40:45.299Z,32.94
2018-04-22T11:41:45.452Z,33.24
2018-04-22T11:42:45.596Z,33.27
2018-04-22T11:43:45.744Z,33.37
2018-04-22T11:44:45.897Z,32.97
2018-04-22T11:45:46.047Z,32.85
2018-04-22T11:46:46.195Z,32.92
2018-04-22T11:47:46.376Z,32.27
2018-04-22T11:48:46.538Z,32.11
2018-04-22T11:49:46.691Z,32.20
2018-04-22T11:50:46.839Z,32.36
2018-04-22T11:51:47.009Z,32.41
2018-04-22T11:52:47.281Z,32.05
2018-04-22T11:53:47.312Z,31.66
2018-04-22T11:54:47.465Z,30.88
2018-04-22T11:55:47.625Z,29.93
2018-04-22T11:56:47.775Z,29.02
2018-04-22T11:57:47.921Z,28.62
2018-04-22T11:58:48.079Z,28.43
2018-04-22T11:59:48.253Z,28.43
2018-04-22T12:00:48.405Z,28.69
2018-04-22T12:01:48.547Z,28.90
2018-04-22T12:02:48.692Z,29.25
2018-04-22T12:03:48.890Z,29.58
2018-04-22T12:04:49.007Z,29.33
2018-04-22T12:05:49.168Z,29.18
2018-04-22T12:06:49.311Z,29.06
2018-04-22T12:07:49.463Z,28.98
2018-04-22T12:08:49.616Z,29.29
2018-04-22T12:09:49.765Z,29.00
2018-04-22T12:10:49.925Z,28.94
2018-04-22T12:11:50.059Z,29.09
2018-04-22T12:12:50.211Z,28.93
2018-04-22T12:13:50.370Z,28.96
2018-04-22T12:14:50.520Z,29.06
2018-04-22T12:15:50.667Z,28.83
2018-04-22T12:16:50.809Z,28.56
2018-04-22T12:17:52.220Z,28.64
2018-04-22T12:18:51.134Z,28.72
2018-04-22T12:19:51.279Z,28.54
2018-04-22T12:20:51.432Z,28.47
2018-04-22T12:21:51.578Z,28.69
2018-04-22T12:22:51.738Z,28.90
2018-04-22T12:23:51.887Z,29.21
2018-04-22T12:24:52.047Z,29.36
2018-04-22T12:25:52.188Z,29.36
2018-04-22T12:26:52.333Z,29.58
2018-04-22T12:27:52.479Z,29.46
2018-04-22T12:28:52.625Z,28.96
2018-04-22T12:29:52.782Z,28.79
2018-04-22T12:30:52.936Z,28.72
2018-04-22T12:31:53.109Z,28.47
2018-04-22T12:32:53.224Z,28.17
2018-04-22T12:33:53.392Z,28.24
2018-04-22T12:34:53.529Z,28.32
2018-04-22T12:35:53.683Z,28.56
2018-04-22T12:36:53.840Z,28.77
2018-04-22T12:37:54.064Z,29.18
2018-04-22T12:38:54.150Z,29.21
2018-04-22T12:39:54.303Z,29.34
2018-04-22T12:40:54.454Z,29.06
2018-04-22T12:41:54.598Z,29.28
2018-04-22T12:42:54.747Z,29.43
2018-04-22T12:43:54.898Z,29.55
2018-04-22T12:44:55.036Z,29.34
2018-04-22T12:45:55.182Z,29.22
2018-04-22T12:46:55.339Z,29.73
2018-04-22T12:47:55.602Z,29.86
2018-04-22T12:48:55.663Z,29.84
2018-04-22T12:49:55.817Z,29.84
2018-04-22T12:50:55.952Z,29.61
2018-04-22T12:51:56.107Z,29.31
2018-04-22T12:52:56.256Z,29.18
2018-04-22T12:53:56.439Z,29.58